sensor_id;sensor_type;location;lat;lon;timestamp;pressure;altitude;pressure_sealevel;temperature;humidity
39309;BME280;26019;47.510;19.122;2023-09-12T00:08:18;100037.16;;;19.14;100.00
39309;BME280;26019;47.510;19.122;2023-09-12T00:18:19;100036.94;;;19.00;100.00
39309;BME280;26019;47.510;19.122;2023-09-12T00:28:21;100037.78;;;19.00;100.00
39309;BME280;26019;47.510;19.122;2023-09-12T00:38:23;100036.16;;;18.77;100.00
39309;BME280;26019;47.510;19.122;2023-09-12T00:48:26;100033.00;;;18.70;100.00
39309;BME280;26019;47.510;19.122;2023-09-12T00:58:28;100038.22;;;18.49;100.00
39309;BME280;26019;47.510;19.122;2023-09-12T01:08:30;100034.00;;;18.47;100.00
39309;BME280;26019;47.510;19.122;2023-09-12T01:18:32;100034.47;;;18.36;100.00
39309;BME280;26019;47.510;19.122;2023-09-12T01:28:38;100033.16;;;18.26;100.00
39309;BME280;26019;47.510;19.122;2023-09-12T01:38:44;100030.66;;;18.23;100.00
39309;BME280;26019;47.510;19.122;2023-09-12T01:48:47;100027.06;;;18.04;100.00
39309;BME280;26019;47.510;19.122;2023-09-12T01:58:53;100031.66;;;17.98;100.00
39309;BME280;26019;47.510;19.122;2023-09-12T02:08:54;100027.53;;;17.92;100.00
39309;BME280;26019;47.510;19.122;2023-09-12T02:18:56;100044.84;;;17.95;100.00
39309;BME280;26019;47.510;19.122;2023-09-12T02:28:58;100030.56;;;17.81;100.00
39309;BME280;26019;47.510;19.122;2023-09-12T02:38:59;100036.00;;;17.76;100.00
39309;BME280;26019;47.510;19.122;2023-09-12T02:49:01;100037.81;;;17.74;100.00
39309;BME280;26019;47.510;19.122;2023-09-12T02:59:04;100033.88;;;17.64;100.00
39309;BME280;26019;47.510;19.122;2023-09-12T03:09:06;100033.19;;;17.59;100.00
39309;BME280;26019;47.510;19.122;2023-09-12T03:19:08;100039.34;;;17.58;100.00
39309;BME280;26019;47.510;19.122;2023-09-12T03:29:10;100042.59;;;17.41;100.00
39309;BME280;26019;47.510;19.122;2023-09-12T03:39:12;100038.69;;;17.30;100.00
39309;BME280;26019;47.510;19.122;2023-09-12T03:49:14;100050.88;;;17.30;100.00
39309;BME280;26019;47.510;19.122;2023-09-12T03:59:16;100053.16;;;17.15;100.00
39309;BME280;26019;47.510;19.122;2023-09-12T04:09:18;100054.28;;;17.08;100.00
39309;BME280;26019;47.510;19.122;2023-09-12T04:19:19;100046.34;;;17.11;100.00
39309;BME280;26019;47.510;19.122;2023-09-12T04:29:23;100059.97;;;17.20;100.00
39309;BME280;26019;47.510;19.122;2023-09-12T04:39:25;100062.06;;;17.10;100.00
39309;BME280;26019;47.510;19.122;2023-09-12T04:49:27;100063.56;;;17.39;100.00
39309;BME280;26019;47.510;19.122;2023-09-12T04:59:29;100073.97;;;17.63;100.00
39309;BME280;26019;47.510;19.122;2023-09-12T05:09:31;100079.00;;;17.90;100.00
39309;BME280;26019;47.510;19.122;2023-09-12T05:19:39;100076.03;;;18.21;100.00
39309;BME280;26019;47.510;19.122;2023-09-12T05:29:41;100087.78;;;18.73;100.00
39309;BME280;26019;47.510;19.122;2023-09-12T05:39:43;100098.38;;;18.91;100.00
39309;BME280;26019;47.510;19.122;2023-09-12T05:49:51;100092.72;;;19.40;100.00
39309;BME280;26019;47.510;19.122;2023-09-12T05:59:54;100100.06;;;19.70;100.00
39309;BME280;26019;47.510;19.122;2023-09-12T06:10:00;100100.84;;;20.09;100.00
39309;BME280;26019;47.510;19.122;2023-09-12T06:20:02;100109.28;;;20.33;100.00
39309;BME280;26019;47.510;19.122;2023-09-12T06:30:08;100111.78;;;20.70;100.00
39309;BME280;26019;47.510;19.122;2023-09-12T06:40:11;100122.28;;;21.21;100.00
39309;BME280;26019;47.510;19.122;2023-09-12T06:50:23;100104.50;;;21.90;100.00
39309;BME280;26019;47.510;19.122;2023-09-12T07:00:34;100110.78;;;22.34;100.00
39309;BME280;26019;47.510;19.122;2023-09-12T07:10:36;100122.84;;;22.98;98.89
39309;BME280;26019;47.510;19.122;2023-09-12T07:20:46;100126.56;;;23.52;88.27
39309;BME280;26019;47.510;19.122;2023-09-12T07:30:48;100136.34;;;24.06;83.49
39309;BME280;26019;47.510;19.122;2023-09-12T07:40:50;100135.31;;;24.62;78.32
39309;BME280;26019;47.510;19.122;2023-09-12T07:50:52;100129.47;;;25.22;70.68
39309;BME280;26019;47.510;19.122;2023-09-12T08:00:54;100125.59;;;25.89;63.25
39309;BME280;26019;47.510;19.122;2023-09-12T08:10:56;100118.56;;;26.36;58.48
39309;BME280;26019;47.510;19.122;2023-09-12T08:20:58;100117.00;;;27.04;54.66
39309;BME280;26019;47.510;19.122;2023-09-12T08:31:00;100119.16;;;27.33;48.76
39309;BME280;26019;47.510;19.122;2023-09-12T08:41:02;100120.41;;;28.05;47.11
39309;BME280;26019;47.510;19.122;2023-09-12T08:51:05;100117.84;;;29.41;42.65
39309;BME280;26019;47.510;19.122;2023-09-12T09:01:17;100114.47;;;32.32;36.09
39309;BME280;26019;47.510;19.122;2023-09-12T09:11:19;100108.84;;;35.12;31.01
39309;BME280;26019;47.510;19.122;2023-09-12T09:21:29;100114.84;;;37.14;27.71
39309;BME280;26019;47.510;19.122;2023-09-12T09:31:33;100111.47;;;38.35;26.01
39309;BME280;26019;47.510;19.122;2023-09-12T09:41:36;100113.88;;;38.52;24.41
39309;BME280;26019;47.510;19.122;2023-09-12T09:51:42;100120.41;;;39.13;23.19
39309;BME280;26019;47.510;19.122;2023-09-12T10:01:49;100104.75;;;39.57;22.16
39309;BME280;26019;47.510;19.122;2023-09-12T10:11:52;100102.69;;;41.05;20.55
39309;BME280;26019;47.510;19.122;2023-09-12T10:22:07;100104.13;;;41.15;20.11
39309;BME280;26019;47.510;19.122;2023-09-12T10:32:11;100102.91;;;43.00;18.80
39309;BME280;26019;47.510;19.122;2023-09-12T10:42:13;100092.09;;;42.19;18.79
39309;BME280;26019;47.510;19.122;2023-09-12T10:52:27;100082.59;;;42.09;17.64
39309;BME280;26019;47.510;19.122;2023-09-12T11:02:31;100087.59;;;42.87;17.35
39309;BME280;26019;47.510;19.122;2023-09-12T11:12:34;100081.38;;;41.09;19.59
39309;BME280;26019;47.510;19.122;2023-09-12T11:22:38;100066.44;;;41.71;18.49
39309;BME280;26019;47.510;19.122;2023-09-12T11:32:45;100055.56;;;45.15;15.93
39309;BME280;26019;47.510;19.122;2023-09-12T11:42:48;100050.00;;;46.35;14.45
39309;BME280;26019;47.510;19.122;2023-09-12T11:53:09;100044.84;;;45.43;16.38
39309;BME280;26019;47.510;19.122;2023-09-12T12:03:29;100044.63;;;44.69;16.16
39309;BME280;26019;47.510;19.122;2023-09-12T12:13:38;100040.59;;;45.86;14.31
39309;BME280;26019;47.510;19.122;2023-09-12T12:23:40;100036.66;;;44.68;14.92
39309;BME280;26019;47.510;19.122;2023-09-12T12:33:49;100016.75;;;45.59;15.09
39309;BME280;26019;47.510;19.122;2023-09-12T12:44:17;100012.25;;;45.87;14.18
39309;BME280;26019;47.510;19.122;2023-09-12T12:54:21;99997.31;;;44.75;13.71
39309;BME280;26019;47.510;19.122;2023-09-12T13:04:24;100001.63;;;45.91;13.40
39309;BME280;26019;47.510;19.122;2023-09-12T13:14:27;100004.44;;;45.40;13.06
39309;BME280;26019;47.510;19.122;2023-09-12T13:24:32;99988.38;;;46.94;13.08
39309;BME280;26019;47.510;19.122;2023-09-12T13:34:34;99980.69;;;44.60;14.10
39309;BME280;26019;47.510;19.122;2023-09-12T13:44:36;99985.16;;;44.37;14.41
39309;BME280;26019;47.510;19.122;2023-09-12T13:54:37;99979.28;;;45.20;13.68
39309;BME280;26019;47.510;19.122;2023-09-12T14:04:39;99972.53;;;44.60;14.46
39309;BME280;26019;47.510;19.122;2023-09-12T14:14:43;99974.41;;;45.05;13.41
39309;BME280;26019;47.510;19.122;2023-09-12T14:25:04;99973.69;;;44.93;14.00
39309;BME280;26019;47.510;19.122;2023-09-12T14:35:11;99971.59;;;41.64;16.32
39309;BME280;26019;47.510;19.122;2023-09-12T14:45:14;99969.44;;;43.20;15.47
39309;BME280;26019;47.510;19.122;2023-09-12T14:55:18;99966.50;;;42.79;15.13
39309;BME280;26019;47.510;19.122;2023-09-12T15:05:20;99968.19;;;39.34;18.39
39309;BME280;26019;47.510;19.122;2023-09-12T15:15:24;99962.03;;;40.72;19.07
39309;BME280;26019;47.510;19.122;2023-09-12T15:25:28;99957.88;;;41.59;17.09
39309;BME280;26019;47.510;19.122;2023-09-12T15:35:30;99972.19;;;41.41;16.73
39309;BME280;26019;47.510;19.122;2023-09-12T15:45:32;99958.19;;;40.86;18.13
39309;BME280;26019;47.510;19.122;2023-09-12T15:55:51;99958.97;;;39.08;19.25
39309;BME280;26019;47.510;19.122;2023-09-12T16:05:53;99952.19;;;35.28;23.78
39309;BME280;26019;47.510;19.122;2023-09-12T16:15:55;99940.19;;;32.72;28.09
39309;BME280;26019;47.510;19.122;2023-09-12T16:25:59;99951.56;;;31.60;29.87
39309;BME280;26019;47.510;19.122;2023-09-12T16:36:02;99949.78;;;30.60;31.20
39309;BME280;26019;47.510;19.122;2023-09-12T16:46:05;99940.75;;;29.66;33.19
39309;BME280;26019;47.510;19.122;2023-09-12T16:56:07;99936.25;;;28.98;35.21
39309;BME280;26019;47.510;19.122;2023-09-12T17:06:09;99950.72;;;28.23;36.86
39309;BME280;26019;47.510;19.122;2023-09-12T17:16:11;99948.28;;;27.68;38.59
39309;BME280;26019;47.510;19.122;2023-09-12T17:26:13;99943.94;;;27.13;40.25
39309;BME280;26019;47.510;19.122;2023-09-12T17:36:16;99952.28;;;26.74;43.34
39309;BME280;26019;47.510;19.122;2023-09-12T17:46:18;99956.50;;;26.20;45.59
39309;BME280;26019;47.510;19.122;2023-09-12T17:56:21;99955.06;;;25.69;48.10
39309;BME280;26019;47.510;19.122;2023-09-12T18:06:24;99957.41;;;25.25;50.35
39309;BME280;26019;47.510;19.122;2023-09-12T18:16:29;99959.81;;;24.79;55.59
39309;BME280;26019;47.510;19.122;2023-09-12T18:26:32;99973.50;;;24.84;56.48
39309;BME280;26019;47.510;19.122;2023-09-12T18:36:37;99984.09;;;24.71;58.41
39309;BME280;26019;47.510;19.122;2023-09-12T18:46:40;99982.81;;;24.51;61.09
39309;BME280;26019;47.510;19.122;2023-09-12T18:56:43;99997.72;;;24.52;66.06
39309;BME280;26019;47.510;19.122;2023-09-12T19:06:46;99993.19;;;24.15;69.01
39309;BME280;26019;47.510;19.122;2023-09-12T19:16:54;100001.25;;;23.74;74.75
39309;BME280;26019;47.510;19.122;2023-09-12T19:27:07;100000.91;;;23.65;77.97
39309;BME280;26019;47.510;19.122;2023-09-12T19:37:12;100001.09;;;23.62;75.52
39309;BME280;26019;47.510;19.122;2023-09-12T19:47:18;99993.88;;;23.24;84.86
39309;BME280;26019;47.510;19.122;2023-09-12T19:57:20;100004.53;;;23.22;82.81
39309;BME280;26019;47.510;19.122;2023-09-12T20:07:32;100003.59;;;23.23;85.93
39309;BME280;26019;47.510;19.122;2023-09-12T20:17:39;100009.84;;;22.93;93.14
39309;BME280;26019;47.510;19.122;2023-09-12T20:27:41;100018.97;;;22.59;97.23
39309;BME280;26019;47.510;19.122;2023-09-12T20:37:44;100015.06;;;22.51;94.71
39309;BME280;26019;47.510;19.122;2023-09-12T20:47:47;100015.78;;;22.53;95.90
39309;BME280;26019;47.510;19.122;2023-09-12T20:57:51;100014.41;;;22.32;100.00
39309;BME280;26019;47.510;19.122;2023-09-12T21:07:57;100017.53;;;21.93;100.00
39309;BME280;26019;47.510;19.122;2023-09-12T21:17:59;100030.25;;;21.71;100.00
39309;BME280;26019;47.510;19.122;2023-09-12T21:28:00;100037.88;;;21.43;100.00
39309;BME280;26019;47.510;19.122;2023-09-12T21:38:06;100040.94;;;21.19;100.00
39309;BME280;26019;47.510;19.122;2023-09-12T21:48:08;100034.06;;;21.01;100.00
39309;BME280;26019;47.510;19.122;2023-09-12T21:58:11;100038.78;;;20.94;100.00
39309;BME280;26019;47.510;19.122;2023-09-12T22:08:12;100018.91;;;20.72;100.00
39309;BME280;26019;47.510;19.122;2023-09-12T22:18:18;100019.22;;;20.66;100.00
39309;BME280;26019;47.510;19.122;2023-09-12T22:28:20;100025.84;;;20.73;100.00
39309;BME280;26019;47.510;19.122;2023-09-12T22:38:24;100026.44;;;20.45;100.00
39309;BME280;26019;47.510;19.122;2023-09-12T22:48:26;100020.47;;;20.08;100.00
39309;BME280;26019;47.510;19.122;2023-09-12T22:58:28;100020.16;;;20.14;100.00
39309;BME280;26019;47.510;19.122;2023-09-12T23:08:30;100018.47;;;19.95;100.00
39309;BME280;26019;47.510;19.122;2023-09-12T23:18:35;100009.22;;;19.88;100.00
39309;BME280;26019;47.510;19.122;2023-09-12T23:28:39;100014.31;;;19.72;100.00
39309;BME280;26019;47.510;19.122;2023-09-12T23:38:40;100006.13;;;19.61;100.00
39309;BME280;26019;47.510;19.122;2023-09-12T23:48:42;100001.00;;;19.40;100.00
39309;BME280;26019;47.510;19.122;2023-09-12T23:58:44;100005.91;;;19.29;100.00
